Time;durP1;ratioP1;P1;durP2;ratioP2;P2;SDS_P1;SDS_P2;PMS_P1;PMS_P2;Temp;Humidity;BMP_temperature;BMP_pressure;BME280_temperature;BME280_humidity;BME280_pressure;Samples;Min_cycle;Max_cycle;Signal;HPM_P1;HPM_P2
2021/12/22 00:01:42;;;;;;;96.10;54.15;;;5.80;99.90;;;;;;5028912;28;20041;-51
2021/12/22 00:04:49;;;;;;;91.85;53.42;;;5.80;99.90;;;;;;5028644;28;20076;-52
2021/12/22 00:07:54;;;;;;;85.25;49.10;;;5.90;99.90;;;;;;5029149;28;20048;-52
2021/12/22 00:10:58;;;;;;;78.78;47.67;;;6.00;99.90;;;;;;5029343;28;20400;-51
2021/12/22 00:14:02;;;;;;;105.13;63.58;;;6.00;99.90;;;;;;5028243;28;20051;-51
2021/12/22 00:17:06;;;;;;;88.90;53.22;;;6.10;99.90;;;;;;5029630;28;20052;-55
2021/12/22 00:20:11;;;;;;;90.13;53.35;;;6.10;99.90;;;;;;5029117;28;20044;-52
2021/12/22 00:23:19;;;;;;;77.85;47.08;;;6.10;99.90;;;;;;5028589;28;20044;-55
2021/12/22 00:26:23;;;;;;;80.38;49.67;;;6.20;99.90;;;;;;5028840;28;20519;-51
2021/12/22 00:29:27;;;;;;;85.50;49.47;;;6.20;99.90;;;;;;5029279;28;20048;-52
2021/12/22 00:32:34;;;;;;;84.57;48.55;;;6.30;99.90;;;;;;5028103;28;20507;-57
2021/12/22 00:35:41;;;;;;;79.32;47.45;;;6.30;99.90;;;;;;5028781;28;20047;-53
2021/12/22 00:38:46;;;;;;;72.47;42.97;;;6.40;99.90;;;;;;5028259;28;20041;-53
2021/12/22 00:41:50;;;;;;;62.50;39.50;;;6.40;99.90;;;;;;5027942;28;20052;-54
2021/12/22 00:44:55;;;;;;;58.67;36.33;;;6.40;99.90;;;;;;5027983;28;20057;-52
2021/12/22 00:47:58;;;;;;;61.95;38.72;;;6.50;99.90;;;;;;5031107;28;20053;-54
2021/12/22 00:51:03;;;;;;;61.65;37.60;;;6.50;99.90;;;;;;5032214;28;20435;-51
2021/12/22 00:54:06;;;;;;;60.08;36.42;;;6.60;99.90;;;;;;5031429;28;20527;-53
2021/12/22 00:57:11;;;;;;;60.88;37.80;;;6.60;99.90;;;;;;5032740;28;20519;-51
2021/12/22 01:00:17;;;;;;;66.63;38.65;;;6.70;99.90;;;;;;5031940;28;20044;-51
2021/12/22 01:03:21;;;;;;;61.97;37.03;;;6.70;99.90;;;;;;5031409;28;20207;-51
2021/12/22 01:06:26;;;;;;;57.97;37.08;;;6.70;99.90;;;;;;5032745;28;20068;-52
2021/12/22 01:09:31;;;;;;;65.45;36.95;;;6.70;99.90;;;;;;5031732;28;20251;-51
2021/12/22 01:12:36;;;;;;;55.17;35.47;;;6.70;99.90;;;;;;5031216;28;20052;-53
2021/12/22 01:15:40;;;;;;;63.25;37.63;;;6.80;99.90;;;;;;5032264;28;20044;-51
2021/12/22 01:18:44;;;;;;;60.72;36.28;;;6.80;99.90;;;;;;5031996;28;20044;-52
2021/12/22 01:22:00;;;;;;;56.58;35.50;;;6.80;99.90;;;;;;5031370;28;20045;-53
2021/12/22 01:25:07;;;;;;;66.38;37.30;;;6.80;99.90;;;;;;5031851;28;20052;-54
2021/12/22 01:28:12;;;;;;;59.90;36.75;;;6.80;99.90;;;;;;5031756;28;20045;-54
2021/12/22 01:31:17;;;;;;;60.88;35.78;;;6.80;99.90;;;;;;5031105;28;20048;-52
2021/12/22 01:34:20;;;;;;;58.05;34.90;;;6.80;99.90;;;;;;5030862;28;20056;-52
2021/12/22 01:37:24;;;;;;;50.40;32.33;;;6.80;99.90;;;;;;5032466;28;20044;-51
2021/12/22 01:40:29;;;;;;;59.78;36.33;;;6.90;99.90;;;;;;5030909;28;20041;-51
2021/12/22 01:43:32;;;;;;;52.28;31.63;;;6.90;99.90;;;;;;5030781;28;20048;-51
2021/12/22 01:49:51;;;;;;;51.95;31.88;;;6.80;99.90;;;;;;5030717;28;20068;-51
2021/12/22 01:52:54;;;;;;;52.92;32.20;;;6.90;99.90;;;;;;5030363;28;20053;-51
2021/12/22 01:56:24;;;;;;;49.75;32.10;;;6.90;99.90;;;;;;5031740;28;20519;-52
2021/12/22 01:59:29;;;;;;;48.22;27.63;;;6.90;99.90;;;;;;5030755;28;20397;-51
2021/12/22 02:02:37;;;;;;;49.75;29.13;;;7.00;99.90;;;;;;5030205;28;20056;-53
2021/12/22 02:05:41;;;;;;;47.45;28.27;;;7.00;99.90;;;;;;5030818;28;20048;-54
2021/12/22 02:08:46;;;;;;;48.22;29.45;;;7.00;99.90;;;;;;5031070;28;20045;-50
2021/12/22 02:11:51;;;;;;;50.65;30.42;;;7.10;99.90;;;;;;5030339;28;20045;-56
2021/12/22 02:14:54;;;;;;;48.92;30.17;;;7.00;99.90;;;;;;5030088;28;20570;-51
2021/12/22 02:18:01;;;;;;;49.28;29.95;;;7.10;99.90;;;;;;5031182;28;20036;-51
2021/12/22 02:21:07;;;;;;;47.03;30.30;;;7.00;99.90;;;;;;5030664;28;20052;-55
2021/12/22 02:24:12;;;;;;;49.33;30.92;;;7.10;99.90;;;;;;5029500;28;20044;-52
2021/12/22 02:27:24;;;;;;;53.90;31.83;;;7.00;99.90;;;;;;5031163;28;20048;-54
2021/12/22 02:30:29;;;;;;;43.83;28.48;;;7.00;99.90;;;;;;5029898;28;20404;-52
2021/12/22 02:33:37;;;;;;;47.00;29.80;;;7.00;99.90;;;;;;5029732;28;20056;-52
2021/12/22 02:36:43;;;;;;;49.45;27.63;;;7.10;99.90;;;;;;5030588;28;20037;-51
2021/12/22 02:39:51;;;;;;;46.53;26.67;;;7.00;99.90;;;;;;5030853;28;20036;-51
2021/12/22 02:43:04;;;;;;;46.47;26.00;;;7.00;99.90;;;;;;5030015;28;20048;-53
2021/12/22 02:46:09;;;;;;;47.42;27.35;;;6.80;99.90;;;;;;5030014;28;20056;-51
2021/12/22 02:49:14;;;;;;;54.55;30.40;;;6.40;99.90;;;;;;5030860;28;20048;-56
2021/12/22 02:52:18;;;;;;;55.10;32.97;;;6.30;99.90;;;;;;5029772;28;20056;-52
2021/12/22 02:55:29;;;;;;;55.67;34.33;;;6.10;99.90;;;;;;5029582;28;20056;-54
2021/12/22 02:58:41;;;;;;;54.00;31.90;;;6.00;99.90;;;;;;5030857;28;20072;-52
2021/12/22 03:04:56;;;;;;;52.55;30.90;;;6.00;99.90;;;;;;5029262;28;20404;-56
2021/12/22 03:08:01;;;;;;;52.88;32.53;;;6.10;99.90;;;;;;5029903;28;20052;-52
2021/12/22 03:11:05;;;;;;;59.88;35.45;;;6.10;99.90;;;;;;5029499;28;20049;-54
2021/12/22 03:14:09;;;;;;;58.42;33.03;;;6.00;99.90;;;;;;5028944;28;20044;-52
2021/12/22 03:17:13;;;;;;;60.92;33.85;;;6.00;99.90;;;;;;5029907;28;20056;-52
2021/12/22 03:20:17;;;;;;;64.05;35.72;;;6.00;99.90;;;;;;5029961;28;20117;-51
2021/12/22 03:23:22;;;;;;;69.82;39.42;;;6.00;99.90;;;;;;5028833;28;20040;-53
2021/12/22 03:26:26;;;;;;;73.93;43.85;;;5.90;99.90;;;;;;5029203;28;20539;-51
2021/12/22 03:29:33;;;;;;;84.90;45.17;;;5.90;99.90;;;;;;5029690;28;20048;-52
2021/12/22 03:32:37;;;;;;;80.00;45.35;;;5.90;99.90;;;;;;5039403;28;20040;-54
2021/12/22 03:35:41;;;;;;;85.32;47.17;;;5.80;99.90;;;;;;5028592;28;20052;-56
2021/12/22 03:38:47;;;;;;;81.57;46.50;;;5.70;99.90;;;;;;5029842;28;20064;-53
2021/12/22 03:41:51;;;;;;;87.18;47.22;;;5.70;99.90;;;;;;5029332;28;20048;-51
2021/12/22 03:44:55;;;;;;;82.15;45.45;;;5.70;99.90;;;;;;5028899;28;20307;-52
2021/12/22 03:47:59;;;;;;;74.20;41.88;;;5.70;99.90;;;;;;5029807;28;20063;-54
2021/12/22 03:51:03;;;;;;;74.95;41.78;;;5.80;99.90;;;;;;5029035;28;20056;-55
2021/12/22 03:54:09;;;;;;;69.60;40.08;;;5.80;99.90;;;;;;5028333;28;20051;-54
2021/12/22 03:57:13;;;;;;;76.13;39.95;;;5.80;99.90;;;;;;5029233;28;20048;-54
2021/12/22 04:00:17;;;;;;;75.82;42.60;;;5.80;99.90;;;;;;5029178;28;20044;-53
2021/12/22 04:03:23;;;;;;;67.40;39.47;;;5.80;99.90;;;;;;5028943;28;20379;-52
2021/12/22 04:06:27;;;;;;;67.68;38.22;;;5.80;99.90;;;;;;5028929;28;20049;-57
2021/12/22 04:09:31;;;;;;;72.95;42.30;;;5.80;99.90;;;;;;5029382;28;20044;-52
2021/12/22 04:12:35;;;;;;;72.47;40.63;;;5.80;99.90;;;;;;5028517;28;20048;-52
2021/12/22 04:15:40;;;;;;;65.60;38.10;;;5.90;99.90;;;;;;5028485;28;20652;-52
2021/12/22 04:18:43;;;;;;;74.75;40.35;;;5.90;99.90;;;;;;5029432;28;20511;-52
2021/12/22 04:21:49;;;;;;;66.88;38.08;;;6.00;99.90;;;;;;5030251;28;20040;-51
2021/12/22 04:24:53;;;;;;;74.22;41.85;;;6.00;99.90;;;;;;5032157;28;20448;-51
2021/12/22 04:28:04;;;;;;;68.50;40.15;;;6.00;99.90;;;;;;5033119;28;20044;-54
2021/12/22 04:31:08;;;;;;;65.38;39.33;;;6.00;99.90;;;;;;5032564;28;20056;-54
2021/12/22 04:34:12;;;;;;;74.45;41.65;;;6.10;99.90;;;;;;5021852;28;20060;-53
2021/12/22 04:37:16;;;;;;;76.95;41.03;;;6.10;99.90;;;;;;5033139;28;20037;-54
2021/12/22 04:40:21;;;;;;;76.80;42.88;;;6.10;99.90;;;;;;5031807;28;20044;-57
2021/12/22 04:43:25;;;;;;;75.28;42.67;;;6.10;99.90;;;;;;5031854;28;20049;-52
2021/12/22 04:46:29;;;;;;;66.97;39.33;;;6.10;99.90;;;;;;5032901;28;20041;-56
2021/12/22 04:49:33;;;;;;;68.53;38.70;;;6.10;99.90;;;;;;5032746;28;20048;-54
2021/12/22 04:52:45;;;;;;;68.07;39.08;;;6.20;99.90;;;;;;5031834;28;20044;-53
2021/12/22 04:55:49;;;;;;;76.90;42.60;;;6.20;99.90;;;;;;5032259;28;20064;-54
2021/12/22 04:58:53;;;;;;;69.43;41.55;;;6.20;99.90;;;;;;5032700;28;20040;-52
2021/12/22 05:01:57;;;;;;;67.13;37.55;;;6.20;99.90;;;;;;5031200;28;20037;-52
2021/12/22 05:05:01;;;;;;;65.63;37.97;;;6.10;99.90;;;;;;5031851;28;20052;-53
2021/12/22 05:08:05;;;;;;;73.07;42.75;;;6.20;99.90;;;;;;5032618;28;20048;-54
2021/12/22 05:11:09;;;;;;;76.47;42.45;;;6.20;99.90;;;;;;5031302;28;20400;-56
2021/12/22 05:14:13;;;;;;;74.05;41.97;;;6.10;99.90;;;;;;5031253;28;21791;-52
2021/12/22 05:17:22;;;;;;;67.80;40.65;;;6.20;99.90;;;;;;5032533;28;20049;-55
2021/12/22 05:20:26;;;;;;;65.55;37.78;;;6.20;99.90;;;;;;5031771;28;20037;-52
2021/12/22 05:23:30;;;;;;;70.63;42.20;;;6.30;99.90;;;;;;5042076;28;20408;-52
2021/12/22 05:26:35;;;;;;;67.57;41.90;;;6.30;99.90;;;;;;5032485;28;20248;-52
2021/12/22 05:29:40;;;;;;;67.15;40.63;;;6.30;99.90;;;;;;5031054;28;20060;-52
2021/12/22 05:32:44;;;;;;;63.53;40.00;;;6.30;99.90;;;;;;5029529;28;20045;-56
2021/12/22 05:35:48;;;;;;;66.68;38.10;;;6.30;99.90;;;;;;5032236;28;20064;-56
2021/12/22 05:38:52;;;;;;;65.97;38.67;;;6.40;99.90;;;;;;5032294;28;20049;-55
2021/12/22 05:41:57;;;;;;;61.10;37.28;;;6.40;99.90;;;;;;5030970;28;20041;-52
2021/12/22 05:45:03;;;;;;;62.90;37.85;;;6.40;99.90;;;;;;5031551;28;20048;-54
2021/12/22 05:48:07;;;;;;;62.08;35.63;;;6.40;99.90;;;;;;5031838;28;20052;-53
2021/12/22 05:51:11;;;;;;;57.05;35.78;;;6.40;99.90;;;;;;5030469;28;20513;-51
2021/12/22 05:54:15;;;;;;;60.00;34.95;;;6.40;99.90;;;;;;5030635;28;20057;-52
2021/12/22 05:57:19;;;;;;;58.05;35.10;;;6.40;99.90;;;;;;5042356;28;20044;-56
2021/12/22 06:00:23;;;;;;;53.17;31.98;;;6.40;99.90;;;;;;5029624;28;20499;-51
2021/12/22 06:03:27;;;;;;;56.03;32.28;;;6.30;99.90;;;;;;5030497;28;20362;-52
2021/12/22 06:06:31;;;;;;;53.50;32.63;;;6.40;99.90;;;;;;5031770;28;20048;-54
2021/12/22 06:09:35;;;;;;;56.33;34.45;;;6.40;99.90;;;;;;5041194;28;20400;-52
2021/12/22 06:12:39;;;;;;;59.28;33.88;;;6.40;99.90;;;;;;5029883;28;20048;-52
2021/12/22 06:15:43;;;;;;;51.40;32.05;;;6.40;99.90;;;;;;5031151;28;20052;-56
2021/12/22 06:18:54;;;;;;;55.25;32.50;;;6.50;99.90;;;;;;5030300;28;20048;-53
2021/12/22 06:21:58;;;;;;;52.88;32.72;;;6.40;99.90;;;;;;5029975;28;20500;-52
2021/12/22 06:25:03;;;;;;;55.40;32.65;;;6.40;99.90;;;;;;5028123;28;20056;-57
2021/12/22 06:28:07;;;;;;;49.35;30.85;;;6.40;99.90;;;;;;5030817;28;20511;-52
2021/12/22 06:31:10;;;;;;;52.92;31.08;;;6.40;99.90;;;;;;5026620;28;20052;-52
2021/12/22 06:34:14;;;;;;;54.97;32.15;;;6.30;99.90;;;;;;5017866;28;20076;-52
2021/12/22 06:37:18;;;;;;;51.53;31.60;;;6.30;99.90;;;;;;5022328;28;20037;-52
2021/12/22 06:40:22;;;;;;;49.10;30.98;;;6.30;99.90;;;;;;5020452;28;20040;-55
2021/12/22 06:43:26;;;;;;;54.50;29.98;;;6.30;99.90;;;;;;5019566;28;20037;-52
2021/12/22 06:46:30;;;;;;;50.85;29.92;;;6.30;99.90;;;;;;5019005;28;20045;-53
2021/12/22 06:49:34;;;;;;;51.38;31.48;;;6.40;99.90;;;;;;5021374;28;20061;-55
2021/12/22 06:52:38;;;;;;;60.47;33.13;;;6.30;99.90;;;;;;5023111;28;20347;-53
2021/12/22 06:55:41;;;;;;;59.70;32.80;;;6.20;99.90;;;;;;5024246;28;20122;-53
2021/12/22 06:58:45;;;;;;;51.60;31.35;;;6.30;99.90;;;;;;5024823;28;20052;-51
2021/12/22 07:01:50;;;;;;;55.28;35.00;;;6.30;99.90;;;;;;5022706;28;20126;-54
2021/12/22 07:04:55;;;;;;;50.40;32.60;;;6.30;99.90;;;;;;5030711;28;20043;-52
2021/12/22 07:07:59;;;;;;;53.05;32.13;;;6.30;99.90;;;;;;5029952;28;20507;-54
2021/12/22 07:11:03;;;;;;;80.72;43.10;;;6.30;99.90;;;;;;5028466;28;20064;-54
2021/12/22 07:14:09;;;;;;;120.28;60.40;;;6.30;99.90;;;;;;5023635;28;20059;-53
2021/12/22 07:17:13;;;;;;;109.38;55.80;;;6.40;99.90;;;;;;5027963;28;20045;-53
2021/12/22 07:20:19;;;;;;;192.90;99.43;;;6.40;99.90;;;;;;5027770;28;20511;-52
2021/12/22 07:23:23;;;;;;;149.85;80.40;;;6.50;99.90;;;;;;5026699;28;20048;-53
2021/12/22 07:26:27;;;;;;;103.53;55.03;;;6.50;99.90;;;;;;5029608;28;20044;-56
2021/12/22 07:29:31;;;;;;;95.30;53.05;;;6.60;99.90;;;;;;5028229;28;20048;-55
2021/12/22 07:32:35;;;;;;;82.07;45.17;;;6.60;99.90;;;;;;5028723;28;20416;-53
2021/12/22 07:35:58;;;;;;;78.18;41.90;;;6.60;99.90;;;;;;5024434;28;20057;-52
2021/12/22 07:39:03;;;;;;;59.78;37.25;;;6.70;99.90;;;;;;5019289;28;20421;-52
2021/12/22 07:42:08;;;;;;;56.72;35.10;;;6.90;99.90;;;;;;5027866;28;20404;-54
2021/12/22 07:45:12;;;;;;;69.68;38.90;;;7.00;99.90;;;;;;5024751;28;20459;-56
2021/12/22 07:48:16;;;;;;;60.88;36.45;;;7.10;99.90;;;;;;5024904;28;20060;-58
2021/12/22 07:51:20;;;;;;;47.55;30.30;;;7.20;99.90;;;;;;5026380;28;20056;-51
2021/12/22 07:54:24;;;;;;;47.92;30.35;;;7.30;99.90;;;;;;5026783;28;20048;-54
2021/12/22 07:57:29;;;;;;;47.08;29.23;;;7.30;99.90;;;;;;5024603;28;20500;-52
2021/12/22 08:00:34;;;;;;;49.55;31.38;;;7.40;99.90;;;;;;5037294;28;20451;-54
2021/12/22 08:03:38;;;;;;;43.92;27.13;;;7.50;99.90;;;;;;5028615;28;20041;-55
2021/12/22 08:06:42;;;;;;;43.33;27.08;;;7.60;99.90;;;;;;5027769;28;20044;-54
2021/12/22 08:09:46;;;;;;;42.83;25.40;;;7.70;99.90;;;;;;5022305;28;20048;-56
2021/12/22 08:12:50;;;;;;;42.70;28.33;;;7.70;99.90;;;;;;5028526;28;20048;-52
2021/12/22 08:15:54;;;;;;;40.45;26.83;;;7.80;99.90;;;;;;5024677;28;20060;-52
2021/12/22 08:18:58;;;;;;;44.03;28.83;;;7.90;99.90;;;;;;5026045;28;20053;-51
2021/12/22 08:22:03;;;;;;;44.75;27.60;;;7.90;99.90;;;;;;5028839;28;20040;-56
2021/12/22 08:25:07;;;;;;;38.92;25.40;;;8.00;99.90;;;;;;5045874;22;20080;-73
2021/12/22 08:28:11;;;;;;;41.53;25.45;;;8.00;99.90;;;;;;5044970;28;20036;-73
2021/12/22 08:31:15;;;;;;;37.42;24.65;;;8.10;99.90;;;;;;5039955;28;20377;-74
2021/12/22 08:34:34;;;;;;;32.10;21.67;;;8.20;99.90;;;;;;5049214;28;20048;-73
2021/12/22 08:41:02;;;;;;;36.47;22.80;;;8.20;99.90;;;;;;5048527;28;20379;-73
2021/12/22 08:44:08;;;;;;;36.08;24.63;;;8.20;99.90;;;;;;5045673;28;20040;-74
2021/12/22 08:47:12;;;;;;;34.92;22.25;;;8.20;99.90;;;;;;5046840;28;20052;-73
2021/12/22 08:50:19;;;;;;;36.97;23.85;;;8.20;99.90;;;;;;5046825;28;20032;-73
2021/12/22 08:53:23;;;;;;;34.47;22.38;;;8.30;99.90;;;;;;5047587;28;20056;-74
2021/12/22 08:56:31;;;;;;;45.10;26.63;;;8.40;99.90;;;;;;5048301;28;20052;-74
2021/12/22 08:59:36;;;;;;;41.13;25.33;;;8.20;99.90;;;;;;5046775;28;20064;-73
2021/12/22 09:02:41;;;;;;;40.20;22.20;;;8.10;99.90;;;;;;5044544;28;21379;-73
2021/12/22 09:05:44;;;;;;;36.90;22.60;;;8.40;99.90;;;;;;5046446;28;20411;-73
2021/12/22 09:08:48;;;;;;;33.20;22.63;;;8.60;99.90;;;;;;5049474;28;20511;-73
2021/12/22 09:11:52;;;;;;;32.08;20.80;;;8.90;99.90;;;;;;5040771;28;20044;-74
2021/12/22 09:14:57;;;;;;;33.72;22.20;;;9.20;99.90;;;;;;5036291;28;20041;-74
2021/12/22 09:18:00;;;;;;;35.28;22.00;;;9.30;99.90;;;;;;5039295;28;20514;-74
2021/12/22 09:21:06;;;;;;;34.08;21.05;;;9.40;99.90;;;;;;5043491;28;20052;-74
2021/12/22 09:24:10;;;;;;;30.05;19.08;;;9.40;99.90;;;;;;5052066;28;20056;-74
2021/12/22 09:27:14;;;;;;;34.75;19.70;;;9.40;99.90;;;;;;5050419;28;20048;-74
2021/12/22 09:30:19;;;;;;;24.77;17.60;;;9.50;99.90;;;;;;5043232;28;20044;-74
2021/12/22 09:33:25;;;;;;;27.92;18.00;;;9.60;99.90;;;;;;5052391;28;20498;-74
2021/12/22 09:36:29;;;;;;;27.58;17.95;;;9.90;99.90;;;;;;5047371;28;20036;-74
2021/12/22 09:39:33;;;;;;;21.60;14.98;;;10.50;99.90;;;;;;5044171;28;20502;-74
2021/12/22 09:42:38;;;;;;;23.60;15.27;;;11.10;99.90;;;;;;5036419;28;20403;-74
2021/12/22 09:45:50;;;;;;;20.88;14.18;;;11.70;99.90;;;;;;5048018;28;20056;-74
2021/12/22 09:49:06;;;;;;;21.40;14.93;;;12.20;99.90;;;;;;5049720;28;20119;-74
2021/12/22 09:52:19;;;;;;;26.77;16.38;;;12.70;99.90;;;;;;5051178;28;20047;-74
2021/12/22 09:55:23;;;;;;;22.70;15.23;;;13.20;99.90;;;;;;5040431;28;20040;-74
2021/12/22 09:58:28;;;;;;;25.67;15.60;;;13.70;99.90;;;;;;5050402;28;20064;-74
2021/12/22 10:01:32;;;;;;;19.73;13.07;;;14.60;99.90;;;;;;5050801;28;20064;-72
2021/12/22 10:04:36;;;;;;;22.40;15.80;;;16.30;99.90;;;;;;5051508;28;20499;-74
2021/12/22 10:07:43;;;;;;;18.90;13.68;;;16.50;99.90;;;;;;5041732;28;20053;-74
2021/12/22 10:10:51;;;;;;;16.85;12.52;;;16.90;99.90;;;;;;5050755;28;20051;-74
2021/12/22 10:13:54;;;;;;;17.95;12.13;;;18.00;99.90;;;;;;5046525;28;21066;-73
2021/12/22 10:16:58;;;;;;;14.77;12.05;;;19.10;99.90;;;;;;5047822;28;20051;-73
2021/12/22 10:20:08;;;;;;;16.42;11.88;;;20.20;99.90;;;;;;5047776;28;20055;-73
2021/12/22 10:23:25;;;;;;;13.23;10.40;;;22.20;97.90;;;;;;5048828;28;20627;-73
2021/12/22 10:26:30;;;;;;;12.32;9.48;;;23.90;95.80;;;;;;5033522;28;20040;-73
2021/12/22 10:29:36;;;;;;;13.40;11.10;;;23.10;93.30;;;;;;5044013;28;20052;-75
2021/12/22 10:32:40;;;;;;;14.75;11.10;;;20.10;95.40;;;;;;5049991;28;20222;-75
2021/12/22 10:35:53;;;;;;;16.95;12.48;;;17.50;98.40;;;;;;5050223;28;20223;-74
2021/12/22 10:39:01;;;;;;;19.23;13.98;;;16.00;99.90;;;;;;5046373;28;20045;-74
2021/12/22 10:42:07;;;;;;;19.58;14.18;;;15.40;99.90;;;;;;5048311;28;20415;-75
2021/12/22 10:45:16;;;;;;;18.08;13.85;;;15.30;99.90;;;;;;5041911;28;20040;-75
2021/12/22 10:52:03;;;;;;;19.67;13.35;;;15.30;99.90;;;;;;5044065;28;20063;-75
2021/12/22 10:55:13;;;;;;;20.88;14.35;;;15.80;99.90;;;;;;5046000;28;20415;-73
2021/12/22 10:58:33;;;;;;;19.70;13.75;;;16.20;99.90;;;;;;5046316;28;20491;-73
2021/12/22 11:01:54;;;;;;;19.08;13.07;;;16.30;99.90;;;;;;5048255;28;21414;-73
2021/12/22 11:05:01;;;;;;;21.23;13.18;;;16.50;99.90;;;;;;5047183;28;20039;-75
2021/12/22 11:08:24;;;;;;;19.15;12.10;;;16.60;99.90;;;;;;5042358;28;20051;-73
2021/12/22 11:11:37;;;;;;;17.40;12.63;;;16.70;99.90;;;;;;5048753;28;20059;-73
2021/12/22 11:14:46;;;;;;;16.02;11.60;;;16.70;99.90;;;;;;5047167;28;20039;-73
2021/12/22 11:17:51;;;;;;;19.98;12.90;;;16.20;99.90;;;;;;5041927;28;20327;-73
2021/12/22 11:21:28;;;;;;;18.58;13.73;;;15.90;99.90;;;;;;5041640;28;20068;-75
2021/12/22 11:24:35;;;;;;;21.13;14.63;;;15.20;99.90;;;;;;5048277;28;20047;-75
2021/12/22 11:27:40;;;;;;;22.58;14.55;;;14.60;99.90;;;;;;5047821;28;20040;-75
2021/12/22 11:30:43;;;;;;;20.38;15.05;;;13.90;99.90;;;;;;5042283;28;20739;-75
2021/12/22 11:33:49;;;;;;;22.00;14.50;;;13.70;99.90;;;;;;5046391;28;20040;-75
2021/12/22 11:36:53;;;;;;;23.73;15.60;;;13.50;99.90;;;;;;5047949;28;20044;-75
2021/12/22 11:39:58;;;;;;;21.95;14.82;;;13.70;99.90;;;;;;5046493;28;20052;-75
2021/12/22 11:43:02;;;;;;;22.08;15.27;;;13.70;99.90;;;;;;5048478;28;20048;-75
2021/12/22 11:46:10;;;;;;;18.30;12.75;;;13.80;99.90;;;;;;5043347;28;20044;-75
2021/12/22 11:49:20;;;;;;;21.27;14.13;;;14.10;99.90;;;;;;5047688;28;20052;-75
2021/12/22 11:52:32;;;;;;;18.85;13.50;;;14.30;99.90;;;;;;5039584;28;20048;-72
2021/12/22 11:55:46;;;;;;;21.92;14.68;;;14.30;99.90;;;;;;5047006;28;20053;-75
2021/12/22 11:58:50;;;;;;;19.70;14.23;;;14.30;99.90;;;;;;5048173;28;20519;-75
2021/12/22 12:02:19;;;;;;;22.60;14.73;;;14.90;99.90;;;;;;5046221;28;20044;-75
2021/12/22 12:05:29;;;;;;;20.23;14.95;;;15.70;99.90;;;;;;5048309;28;20064;-75
2021/12/22 12:08:36;;;;;;;18.38;12.70;;;16.40;99.90;;;;;;5048641;28;20056;-75
2021/12/22 12:11:48;;;;;;;19.02;13.15;;;17.20;99.90;;;;;;5046094;28;20048;-75
2021/12/22 12:21:49;;;;;;;17.27;12.00;;;18.10;99.90;;;;;;5044630;28;20049;-73
2021/12/22 12:24:59;;;;;;;14.70;11.05;;;17.70;99.90;;;;;;5040533;28;20052;-75
2021/12/22 12:28:17;;;;;;;17.98;12.95;;;17.00;99.90;;;;;;5046913;28;20052;-75
2021/12/22 12:31:39;;;;;;;16.08;9.57;;;16.30;99.90;;;;;;5047548;28;20384;-73
2021/12/22 12:34:44;;;;;;;15.07;9.83;;;16.00;99.90;;;;;;5047622;28;20048;-72
2021/12/22 12:38:27;;;;;;;12.85;9.73;;;15.80;99.90;;;;;;5044955;28;20056;-75
2021/12/22 12:41:32;;;;;;;11.90;9.00;;;15.50;99.90;;;;;;5036210;28;20040;-75
2021/12/22 12:44:36;;;;;;;13.77;9.57;;;15.30;99.90;;;;;;5052482;28;20060;-72
2021/12/22 12:47:39;;;;;;;13.38;8.85;;;15.30;99.90;;;;;;5045522;28;20138;-75
2021/12/22 12:51:19;;;;;;;14.00;9.98;;;15.10;99.90;;;;;;5049698;28;20067;-72
2021/12/22 12:54:24;;;;;;;15.27;9.63;;;14.80;99.90;;;;;;5050212;28;20048;-74
2021/12/22 12:57:29;;;;;;;11.07;8.23;;;15.00;99.90;;;;;;5051358;28;20372;-74
2021/12/22 13:00:45;;;;;;;13.40;8.25;;;14.70;99.90;;;;;;5051569;28;20384;-74
2021/12/22 13:03:49;;;;;;;11.95;8.07;;;14.30;99.90;;;;;;5052009;28;20055;-74
2021/12/22 13:07:09;;;;;;;10.77;7.50;;;13.90;99.90;;;;;;5051878;28;20384;-74
2021/12/22 13:10:23;;;;;;;9.85;7.22;;;15.70;99.90;;;;;;5050157;28;20056;-75
2021/12/22 13:15:45;;;;;;;7.07;5.90;;;18.00;99.90;;;;;;5047158;28;20044;-73
2021/12/22 13:16:59;;;;;;;9.90;7.13;;;19.20;99.90;;;;;;5043509;28;20048;-73
2021/12/22 13:20:04;;;;;;;11.23;6.20;;;18.70;98.50;;;;;;5040655;28;20041;-72
2021/12/22 13:23:20;;;;;;;8.63;5.75;;;17.10;99.40;;;;;;5044338;28;20510;-75
2021/12/22 13:26:24;;;;;;;7.93;5.75;;;16.60;99.90;;;;;;5051080;28;20048;-76
2021/12/22 13:29:28;;;;;;;9.48;6.32;;;16.40;99.90;;;;;;5050782;28;20040;-76
2021/12/22 13:32:32;;;;;;;7.15;5.72;;;16.50;99.90;;;;;;5048998;28;20076;-73
2021/12/22 13:35:40;;;;;;;7.18;5.30;;;17.20;99.90;;;;;;5047858;28;20044;-73
2021/12/22 13:38:54;;;;;;;8.00;5.70;;;17.50;99.90;;;;;;5031660;28;20052;-73
2021/12/22 13:42:03;;;;;;;9.15;5.82;;;17.50;99.90;;;;;;5049770;28;20044;-73
2021/12/22 13:45:07;;;;;;;7.80;4.60;;;17.40;99.70;;;;;;5044590;28;20044;-76
2021/12/22 13:48:21;;;;;;;7.32;5.38;;;17.30;99.70;;;;;;5050494;28;20044;-76
2021/12/22 13:51:34;;;;;;;9.00;6.82;;;17.60;99.90;;;;;;5050241;28;20044;-73
2021/12/22 13:54:38;;;;;;;12.05;6.20;;;17.40;99.10;;;;;;5050188;28;20056;-76
2021/12/22 13:57:42;;;;;;;10.15;6.88;;;17.10;99.80;;;;;;5041803;28;20103;-75
2021/12/22 14:00:46;;;;;;;9.43;6.20;;;16.40;99.90;;;;;;5042810;28;20048;-75
2021/12/22 14:04:00;;;;;;;8.88;6.10;;;16.10;99.90;;;;;;5045639;28;20495;-75
2021/12/22 14:07:17;;;;;;;12.77;6.80;;;15.30;99.90;;;;;;5045601;28;20044;-75
2021/12/22 14:10:21;;;;;;;9.85;7.00;;;14.50;99.90;;;;;;5049767;28;20491;-75
2021/12/22 14:13:29;;;;;;;11.02;6.20;;;14.60;99.90;;;;;;5048378;28;20395;-75
2021/12/22 14:16:33;;;;;;;8.65;5.35;;;14.50;99.90;;;;;;5047125;28;20036;-75
2021/12/22 14:19:41;;;;;;;9.55;6.30;;;15.30;99.90;;;;;;5050743;28;20048;-75
2021/12/22 14:22:56;;;;;;;11.15;6.18;;;15.70;99.90;;;;;;5049544;28;20048;-75
2021/12/22 14:26:09;;;;;;;9.40;6.50;;;16.90;99.90;;;;;;5048099;28;20071;-75
2021/12/22 14:29:14;;;;;;;9.35;5.65;;;17.00;99.20;;;;;;5049151;28;20064;-75
2021/12/22 14:32:38;;;;;;;7.78;5.40;;;16.10;99.60;;;;;;5051591;28;20048;-74
2021/12/22 14:35:45;;;;;;;9.40;6.18;;;14.40;99.90;;;;;;5049463;28;20043;-74
2021/12/22 14:38:50;;;;;;;7.28;4.82;;;13.40;99.90;;;;;;5045374;28;20044;-74
2021/12/22 14:41:55;;;;;;;7.30;4.93;;;13.30;99.90;;;;;;5050689;28;20048;-75
2021/12/22 14:45:21;;;;;;;8.95;4.68;;;13.10;99.90;;;;;;5050360;28;20040;-74
2021/12/22 14:48:30;;;;;;;6.75;3.85;;;13.00;99.90;;;;;;5049130;28;20060;-74
2021/12/22 14:51:38;;;;;;;9.43;4.15;;;12.70;99.90;;;;;;5050449;28;20392;-74
2021/12/22 14:54:41;;;;;;;6.68;4.57;;;12.40;99.90;;;;;;5048460;28;20491;-74
2021/12/22 14:57:45;;;;;;;8.23;4.35;;;12.10;99.90;;;;;;5048972;28;20032;-74
2021/12/22 15:00:50;;;;;;;7.90;4.70;;;11.80;99.90;;;;;;5049234;28;20059;-74
2021/12/22 15:03:56;;;;;;;7.68;4.57;;;11.50;99.90;;;;;;5048915;28;20051;-74
2021/12/22 15:07:00;;;;;;;5.72;4.07;;;11.30;99.90;;;;;;5045041;28;20059;-74
2021/12/22 15:10:05;;;;;;;7.65;4.07;;;11.10;99.90;;;;;;5048509;28;20052;-74
2021/12/22 15:13:10;;;;;;;5.57;4.45;;;10.90;99.90;;;;;;5050077;28;20040;-74
2021/12/22 15:16:17;;;;;;;5.32;3.58;;;10.70;99.90;;;;;;5046699;28;20051;-74
2021/12/22 15:19:21;;;;;;;6.45;4.30;;;10.60;99.90;;;;;;5048235;28;20052;-74
2021/12/22 15:22:25;;;;;;;7.28;4.88;;;10.50;99.90;;;;;;5048898;28;20036;-74
2021/12/22 15:25:29;;;;;;;6.80;4.07;;;10.30;99.90;;;;;;5048853;28;20044;-75
2021/12/22 15:28:33;;;;;;;6.70;4.32;;;10.20;99.90;;;;;;5034128;28;20037;-74
2021/12/22 15:31:39;;;;;;;8.15;4.95;;;10.20;99.90;;;;;;5034825;28;20052;-75
2021/12/22 15:34:43;;;;;;;6.35;4.15;;;10.10;99.90;;;;;;5041894;28;20382;-75
2021/12/22 15:37:47;;;;;;;6.10;3.92;;;10.10;99.90;;;;;;5048250;28;20363;-74
2021/12/22 15:40:53;;;;;;;8.45;4.63;;;10.10;99.90;;;;;;5049321;28;20372;-74
2021/12/22 15:43:57;;;;;;;6.60;4.07;;;10.00;99.90;;;;;;5037787;28;20036;-74
2021/12/22 15:47:01;;;;;;;6.00;4.00;;;9.90;99.90;;;;;;5045303;28;20047;-74
2021/12/22 15:50:07;;;;;;;9.95;4.45;;;9.80;99.90;;;;;;5033319;28;20499;-74
2021/12/22 15:53:11;;;;;;;8.65;4.13;;;9.70;99.90;;;;;;5044596;28;20045;-74
2021/12/22 15:56:16;;;;;;;9.80;5.05;;;9.60;99.90;;;;;;5048649;28;20041;-74
2021/12/22 15:59:21;;;;;;;10.55;5.80;;;9.50;99.90;;;;;;5035595;28;20041;-75
2021/12/22 16:02:26;;;;;;;10.98;5.60;;;9.50;99.90;;;;;;5048040;28;20106;-74
2021/12/22 16:05:31;;;;;;;11.40;5.88;;;9.40;99.90;;;;;;5049493;28;20419;-74
2021/12/22 16:08:37;;;;;;;10.23;6.00;;;9.40;99.90;;;;;;5047274;28;20407;-74
2021/12/22 16:11:40;;;;;;;11.38;5.78;;;9.30;99.90;;;;;;5049141;28;20048;-74
2021/12/22 16:14:44;;;;;;;8.70;5.88;;;9.20;99.90;;;;;;5048640;28;20048;-74
2021/12/22 16:17:49;;;;;;;10.43;6.07;;;9.10;99.90;;;;;;5051084;28;20037;-74
2021/12/22 16:20:53;;;;;;;9.15;5.47;;;9.00;99.90;;;;;;5053667;28;20048;-74